createdAt,value
2018-04-17T00:00:33.107Z,66.40
2018-04-17T00:04:35.760Z,66.30
2018-04-17T00:08:38.451Z,67.00
2018-04-17T00:12:41.064Z,66.30
2018-04-17T00:16:43.714Z,66.30
2018-04-17T00:20:46.352Z,66.30
2018-04-17T00:24:48.998Z,66.20
2018-04-17T00:28:51.615Z,66.20
2018-04-17T00:32:54.258Z,66.30
2018-04-17T00:36:56.909Z,66.30
2018-04-17T00:40:59.551Z,66.30
2018-04-17T00:45:02.198Z,66.30
2018-04-17T00:49:05.580Z,66.40
2018-04-17T00:53:20.232Z,66.40
2018-04-17T00:57:22.880Z,66.40
2018-04-17T01:01:25.523Z,66.60
2018-04-17T01:05:28.177Z,66.60
2018-04-17T01:09:30.780Z,66.60
2018-04-17T01:13:33.441Z,66.50
2018-04-17T01:17:36.080Z,66.60
2018-04-17T01:21:38.725Z,66.40
2018-04-17T01:25:41.368Z,66.50
2018-04-17T01:29:43.971Z,66.40
2018-04-17T01:33:47.434Z,66.60
2018-04-17T01:37:50.127Z,66.60
2018-04-17T01:41:52.764Z,66.60
2018-04-17T01:45:56.144Z,66.60
2018-04-17T01:49:58.796Z,66.50
2018-04-17T01:54:01.513Z,66.60
2018-04-17T01:58:04.160Z,66.50
2018-04-17T02:02:06.809Z,66.50
2018-04-17T02:06:10.171Z,67.20
2018-04-17T02:10:13.075Z,66.50
2018-04-17T02:14:15.717Z,66.60
2018-04-17T02:18:19.123Z,66.70
2018-04-17T02:22:22.575Z,66.80
2018-04-17T02:26:25.177Z,66.80
2018-04-17T02:30:27.928Z,66.90
2018-04-17T02:34:30.683Z,66.70
2018-04-17T02:38:34.090Z,66.90
2018-04-17T02:42:36.763Z,66.90
2018-04-17T02:46:39.372Z,67.00
2018-04-17T02:50:42.779Z,67.00
2018-04-17T02:54:45.452Z,67.00
2018-04-17T02:58:48.155Z,66.90
2018-04-17T03:02:51.558Z,67.20
2018-04-17T03:06:54.935Z,67.00
2018-04-17T03:10:57.585Z,67.70
2018-04-17T03:15:00.228Z,67.10
2018-04-17T03:19:02.868Z,67.10
2018-04-17T03:23:05.531Z,67.10
2018-04-17T03:27:08.168Z,67.10
2018-04-17T03:31:10.808Z,67.10
2018-04-17T03:35:13.450Z,67.20
2018-04-17T03:39:16.093Z,66.80
2018-04-17T03:43:18.704Z,67.40
2018-04-17T03:47:21.341Z,67.40
2018-04-17T03:51:24.815Z,67.30
2018-04-17T03:55:27.450Z,67.30
2018-04-17T03:59:30.866Z,67.50
2018-04-17T04:03:33.459Z,67.50
2018-04-17T04:07:36.197Z,67.50
2018-04-17T04:11:38.883Z,67.50
2018-04-17T04:15:41.523Z,67.70
2018-04-17T04:19:56.017Z,67.70
2018-04-17T04:24:10.354Z,67.90
2018-04-17T04:28:12.992Z,68.00
2018-04-17T04:32:15.638Z,67.80
2018-04-17T04:36:18.275Z,68.00
2018-04-17T04:40:20.985Z,68.20
2018-04-17T04:44:24.360Z,68.20
2018-04-17T04:48:27.074Z,68.20
2018-04-17T04:52:30.480Z,68.10
2018-04-17T04:56:33.901Z,68.20
2018-04-17T05:00:37.283Z,68.50
2018-04-17T05:04:39.941Z,68.40
2018-04-17T05:08:42.596Z,68.50
2018-04-17T05:12:45.232Z,68.70
2018-04-17T05:16:47.849Z,69.10
2018-04-17T05:20:51.272Z,69.00
2018-04-17T05:24:53.910Z,68.90
2018-04-17T05:28:56.554Z,69.50
2018-04-17T05:32:59.203Z,72.50
2018-04-17T05:37:01.836Z,70.00
2018-04-17T05:41:04.484Z,70.20
2018-04-17T05:45:07.195Z,69.20
2018-04-17T05:49:09.860Z,71.00
2018-04-17T05:53:12.515Z,69.50
2018-04-17T05:57:15.174Z,68.80
2018-04-17T06:01:17.849Z,69.50
2018-04-17T06:05:21.289Z,69.50
2018-04-17T06:09:23.970Z,69.50
2018-04-17T06:13:26.633Z,69.00
2018-04-17T06:17:29.305Z,69.00
2018-04-17T06:21:31.971Z,72.10
2018-04-17T06:25:34.655Z,70.10
2018-04-17T06:29:37.324Z,70.10
2018-04-17T06:33:40.004Z,70.00
2018-04-17T06:37:42.617Z,70.10
2018-04-17T06:41:45.333Z,70.10
2018-04-17T06:45:47.921Z,69.80
2018-04-17T06:49:50.563Z,71.30
2018-04-17T06:53:53.209Z,71.60
2018-04-17T06:57:56.629Z,74.00
2018-04-17T07:02:00.050Z,73.30
2018-04-17T07:06:02.712Z,73.40
2018-04-17T07:10:06.134Z,74.20
2018-04-17T07:14:08.785Z,74.10
2018-04-17T07:18:11.521Z,74.30
2018-04-17T07:22:14.180Z,75.40
2018-04-17T07:26:16.964Z,74.50
2018-04-17T07:30:19.629Z,73.30
2018-04-17T07:34:22.298Z,71.80
2018-04-17T07:38:24.917Z,70.70
2018-04-17T07:42:27.583Z,69.30
2018-04-17T07:46:30.252Z,69.30
2018-04-17T07:50:32.901Z,68.40
2018-04-17T07:54:35.641Z,67.80
2018-04-17T07:58:41.821Z,68.00
2018-04-17T08:02:44.463Z,67.40
2018-04-17T08:06:47.879Z,66.50
2018-04-17T08:10:50.540Z,66.40
2018-04-17T08:14:53.192Z,66.30
2018-04-17T08:18:55.808Z,66.10
2018-04-17T08:22:58.445Z,66.20
2018-04-17T08:27:01.093Z,63.00
2018-04-17T08:31:03.748Z,63.80
2018-04-17T08:35:06.396Z,62.50
2018-04-17T08:39:09.812Z,63.00
2018-04-17T08:43:12.468Z,62.90
2018-04-17T08:47:15.115Z,64.00
2018-04-17T08:51:17.777Z,64.80
2018-04-17T08:55:20.447Z,65.10
2018-04-17T08:59:27.568Z,65.80
2018-04-17T09:03:30.279Z,65.00
2018-04-17T09:07:32.931Z,64.60
2018-04-17T09:11:36.342Z,67.10
2018-04-17T09:15:39.000Z,67.00
2018-04-17T09:19:41.619Z,66.60
2018-04-17T09:23:44.277Z,67.00
2018-04-17T09:27:46.928Z,67.40
2018-04-17T09:31:49.581Z,67.50
2018-04-17T09:35:52.344Z,67.30
2018-04-17T09:39:54.985Z,66.20
2018-04-17T09:43:57.663Z,67.40
2018-04-17T09:48:00.344Z,66.90
2018-04-17T09:52:03.004Z,66.20
2018-04-17T09:56:06.444Z,61.20
2018-04-17T10:00:09.095Z,61.10
2018-04-17T10:04:11.754Z,61.40
2018-04-17T10:08:14.489Z,62.90
2018-04-17T10:12:17.925Z,63.90
2018-04-17T10:16:20.610Z,63.50
2018-04-17T10:20:23.288Z,62.20
2018-04-17T10:24:25.981Z,62.00
2018-04-17T10:28:28.655Z,64.00
2018-04-17T10:32:31.335Z,62.00
2018-04-17T10:36:34.762Z,62.00
2018-04-17T10:40:37.448Z,61.90
2018-04-17T10:44:40.099Z,59.80
2018-04-17T10:48:42.740Z,59.80
2018-04-17T10:52:45.392Z,60.60
2018-04-17T10:56:48.822Z,60.80
2018-04-17T11:00:51.429Z,60.80
2018-04-17T11:04:54.122Z,61.00
2018-04-17T11:08:56.740Z,60.80
2018-04-17T11:12:59.390Z,59.60
2018-04-17T11:17:02.120Z,61.80
2018-04-17T11:21:04.797Z,61.50
2018-04-17T11:25:08.275Z,61.80
2018-04-17T11:29:10.949Z,61.70
2018-04-17T11:33:13.623Z,63.30
2018-04-17T11:37:17.155Z,60.00
2018-04-17T11:41:19.779Z,59.40
2018-04-17T11:45:22.530Z,60.70
2018-04-17T11:49:25.197Z,59.70
2018-04-17T11:53:28.621Z,60.70
2018-04-17T11:57:31.367Z,60.70
2018-04-17T12:01:33.999Z,61.50
2018-04-17T12:05:36.641Z,61.80
2018-04-17T12:09:40.094Z,60.70
2018-04-17T12:13:42.790Z,60.60
2018-04-17T12:17:45.479Z,60.60
2018-04-17T12:21:48.149Z,62.50
2018-04-17T12:25:51.600Z,58.70
2018-04-17T12:29:54.314Z,58.70
2018-04-17T12:33:57.092Z,58.20
2018-04-17T12:37:59.749Z,57.00
2018-04-17T12:42:02.416Z,59.10
2018-04-17T12:46:05.100Z,59.30
2018-04-17T12:50:08.534Z,59.40
2018-04-17T12:54:11.202Z,58.90
2018-04-17T12:58:13.929Z,58.80
2018-04-17T13:02:16.613Z,58.50
2018-04-17T13:06:19.288Z,58.30
2018-04-17T13:10:21.947Z,56.10
2018-04-17T13:14:25.402Z,58.70
2018-04-17T13:18:28.056Z,58.70
2018-04-17T13:22:30.710Z,58.60
2018-04-17T13:26:33.396Z,58.60
2018-04-17T13:30:36.136Z,56.50
2018-04-17T13:34:38.780Z,58.30
2018-04-17T13:38:41.466Z,58.00
2018-04-17T13:42:44.934Z,59.10
2018-04-17T13:46:47.628Z,59.10
2018-04-17T13:50:50.300Z,57.70
2018-04-17T13:54:52.953Z,57.10
2018-04-17T13:58:55.634Z,58.10
2018-04-17T14:02:58.379Z,57.30
2018-04-17T14:07:01.062Z,56.50
2018-04-17T14:11:03.751Z,52.90
2018-04-17T14:15:06.412Z,53.60
2018-04-17T14:19:09.858Z,55.70
2018-04-17T14:23:12.514Z,55.60
2018-04-17T14:27:15.951Z,56.00
2018-04-17T14:31:18.661Z,55.90
2018-04-17T14:35:21.369Z,57.00
2018-04-17T14:39:24.041Z,56.30
2018-04-17T14:43:26.820Z,51.70
2018-04-17T14:47:29.502Z,57.70
2018-04-17T14:51:32.183Z,56.90
2018-04-17T14:55:34.877Z,57.80
2018-04-17T14:59:37.548Z,56.30
2018-04-17T15:03:40.292Z,55.60
2018-04-17T15:07:42.952Z,56.10
2018-04-17T15:11:45.563Z,55.80
2018-04-17T15:15:48.294Z,55.70
2018-04-17T15:19:51.794Z,57.10
2018-04-17T15:23:55.268Z,56.90
2018-04-17T15:27:57.932Z,56.60
2018-04-17T15:32:00.621Z,57.20
2018-04-17T15:36:03.315Z,57.80
2018-04-17T15:40:06.032Z,58.00
2018-04-17T15:44:09.802Z,57.90
2018-04-17T15:48:12.471Z,57.10
2018-04-17T15:52:15.912Z,57.40
2018-04-17T15:56:18.591Z,57.40
2018-04-17T16:00:21.307Z,57.50
2018-04-17T16:04:23.986Z,57.80
2018-04-17T16:08:26.676Z,58.00
2018-04-17T16:12:29.337Z,58.00
2018-04-17T16:16:32.041Z,57.60
2018-04-17T16:20:34.721Z,57.00
2018-04-17T16:24:37.457Z,57.10
2018-04-17T16:28:40.122Z,57.30
2018-04-17T16:32:42.798Z,57.30
2018-04-17T16:36:45.460Z,57.70
2018-04-17T16:40:48.148Z,57.80
2018-04-17T16:44:51.608Z,58.00
2018-04-17T16:48:54.283Z,58.00
2018-04-17T16:52:56.992Z,58.60
2018-04-17T16:56:59.680Z,58.80
2018-04-17T17:01:02.360Z,58.50
2018-04-17T17:05:05.049Z,58.40
2018-04-17T17:09:07.716Z,58.30
2018-04-17T17:13:10.453Z,58.40
2018-04-17T17:17:13.214Z,58.40
2018-04-17T17:21:15.890Z,58.50
2018-04-17T17:25:18.625Z,58.60
2018-04-17T17:29:21.414Z,58.60
2018-04-17T17:33:24.083Z,58.50
2018-04-17T17:37:26.832Z,58.50
2018-04-17T17:41:29.521Z,58.40
2018-04-17T17:45:32.182Z,58.60
2018-04-17T17:49:34.843Z,58.70
2018-04-17T17:53:37.519Z,59.50
2018-04-17T17:57:40.245Z,59.00
2018-04-17T18:01:42.870Z,59.10
2018-04-17T18:05:45.665Z,59.20
2018-04-17T18:09:48.320Z,59.10
2018-04-17T18:13:50.978Z,59.30
2018-04-17T18:17:53.695Z,59.30
2018-04-17T18:21:56.578Z,59.30
2018-04-17T18:25:59.248Z,59.30
2018-04-17T18:30:01.938Z,59.20
2018-04-17T18:34:04.644Z,59.10
2018-04-17T18:38:07.319Z,59.10
2018-04-17T18:42:09.948Z,59.10
2018-04-17T18:46:13.433Z,59.10
2018-04-17T18:50:16.108Z,59.10
2018-04-17T18:54:18.989Z,59.10
2018-04-17T18:58:21.608Z,59.10
2018-04-17T19:02:24.273Z,59.20
2018-04-17T19:06:26.981Z,58.40
2018-04-17T19:10:29.624Z,58.20
2018-04-17T19:14:32.306Z,59.20
2018-04-17T19:18:34.972Z,59.20
2018-04-17T19:22:38.380Z,59.30
2018-04-17T19:26:41.911Z,59.40
2018-04-17T19:30:44.561Z,59.30
2018-04-17T19:34:47.261Z,59.40
2018-04-17T19:38:50.721Z,59.50
2018-04-17T19:42:53.372Z,59.50
2018-04-17T19:46:56.840Z,59.60
2018-04-17T19:50:59.567Z,59.50
2018-04-17T19:55:03.792Z,59.70
2018-04-17T19:59:07.176Z,59.70
2018-04-17T20:03:09.816Z,59.70
2018-04-17T20:07:12.520Z,59.70
2018-04-17T20:11:15.167Z,59.80
2018-04-17T20:15:18.604Z,59.80
2018-04-17T20:19:21.243Z,59.80
2018-04-17T20:23:23.916Z,59.70
2018-04-17T20:27:26.566Z,59.00
2018-04-17T20:31:29.216Z,59.70
2018-04-17T20:35:32.599Z,59.80
2018-04-17T20:39:35.250Z,59.80
2018-04-17T20:43:37.964Z,59.20
2018-04-17T20:47:40.608Z,59.90
2018-04-17T20:51:43.252Z,60.00
2018-04-17T20:55:45.912Z,60.20
2018-04-17T20:59:48.555Z,60.20
2018-04-17T21:03:51.966Z,60.30
2018-04-17T21:07:55.382Z,60.30
2018-04-17T21:11:58.028Z,60.30
2018-04-17T21:16:00.686Z,60.40
2018-04-17T21:20:03.328Z,60.30
2018-04-17T21:24:06.747Z,60.40
2018-04-17T21:28:09.428Z,60.30
2018-04-17T21:32:12.795Z,60.40
2018-04-17T21:36:15.441Z,60.40
2018-04-17T21:40:18.848Z,60.30
2018-04-17T21:44:21.492Z,61.10
2018-04-17T21:48:24.152Z,60.40
2018-04-17T21:52:26.763Z,60.40
2018-04-17T21:56:29.416Z,60.30
2018-04-17T22:00:32.067Z,60.40
2018-04-17T22:04:35.497Z,60.60
2018-04-17T22:08:38.136Z,60.50
2018-04-17T22:12:40.744Z,60.60
2018-04-17T22:16:44.209Z,61.10
2018-04-17T22:20:46.866Z,61.00
2018-04-17T22:24:49.527Z,61.00
2018-04-17T22:28:52.931Z,61.50
2018-04-17T22:32:55.552Z,61.30
2018-04-17T22:36:58.259Z,61.20
2018-04-17T22:41:00.913Z,61.30
2018-04-17T22:45:04.316Z,61.50
2018-04-17T22:49:07.740Z,61.50
2018-04-17T22:53:10.353Z,61.40
2018-04-17T22:57:13.094Z,61.50
2018-04-17T23:01:16.514Z,61.70
2018-04-17T23:05:19.171Z,61.70
2018-04-17T23:09:21.828Z,61.70
2018-04-17T23:13:24.485Z,61.70
2018-04-17T23:17:27.145Z,62.40
2018-04-17T23:21:30.564Z,62.10
2018-04-17T23:25:33.973Z,61.60
2018-04-17T23:29:36.592Z,61.60
2018-04-17T23:33:39.230Z,61.40
2018-04-17T23:37:41.864Z,61.50
2018-04-17T23:41:44.498Z,61.60
2018-04-17T23:45:47.157Z,61.40
2018-04-17T23:49:49.769Z,61.60
2018-04-17T23:53:52.422Z,61.70
2018-04-17T23:57:55.064Z,61.70
